sensor_id;sensor_type;location;lat;lon;timestamp;P1;durP1;ratioP1;P2;durP2;ratioP2
52776;SDS011;38656;54.260;20.822;2022-10-31T00:00:51;37.15;;;25.83;;
52776;SDS011;38656;54.260;20.822;2022-10-31T00:03:17;37.90;;;25.73;;
52776;SDS011;38656;54.260;20.822;2022-10-31T00:05:43;46.63;;;29.17;;
52776;SDS011;38656;54.260;20.822;2022-10-31T00:08:10;52.63;;;46.45;;
52776;SDS011;38656;54.260;20.822;2022-10-31T00:10:42;55.35;;;32.90;;
52776;SDS011;38656;54.260;20.822;2022-10-31T00:13:08;40.10;;;28.20;;
52776;SDS011;38656;54.260;20.822;2022-10-31T00:15:35;37.13;;;30.00;;
52776;SDS011;38656;54.260;20.822;2022-10-31T00:18:01;32.03;;;25.92;;
52776;SDS011;38656;54.260;20.822;2022-10-31T00:20:28;37.65;;;25.17;;
52776;SDS011;38656;54.260;20.822;2022-10-31T00:22:57;36.15;;;24.88;;
52776;SDS011;38656;54.260;20.822;2022-10-31T00:25:23;36.35;;;23.30;;
52776;SDS011;38656;54.260;20.822;2022-10-31T00:27:49;47.28;;;30.48;;
52776;SDS011;38656;54.260;20.822;2022-10-31T00:30:15;49.70;;;33.42;;
52776;SDS011;38656;54.260;20.822;2022-10-31T00:32:41;64.40;;;37.78;;
52776;SDS011;38656;54.260;20.822;2022-10-31T00:35:07;61.38;;;38.40;;
52776;SDS011;38656;54.260;20.822;2022-10-31T00:37:33;47.72;;;32.47;;
52776;SDS011;38656;54.260;20.822;2022-10-31T00:39:59;31.63;;;22.27;;
52776;SDS011;38656;54.260;20.822;2022-10-31T00:42:25;36.95;;;26.75;;
52776;SDS011;38656;54.260;20.822;2022-10-31T00:44:51;33.45;;;23.27;;
52776;SDS011;38656;54.260;20.822;2022-10-31T00:47:17;43.88;;;28.67;;
52776;SDS011;38656;54.260;20.822;2022-10-31T00:49:43;48.40;;;35.83;;
52776;SDS011;38656;54.260;20.822;2022-10-31T00:52:09;64.10;;;35.33;;
52776;SDS011;38656;54.260;20.822;2022-10-31T00:54:35;56.22;;;32.15;;
52776;SDS011;38656;54.260;20.822;2022-10-31T00:57:02;99.40;;;54.33;;
52776;SDS011;38656;54.260;20.822;2022-10-31T00:59:28;55.90;;;39.85;;
52776;SDS011;38656;54.260;20.822;2022-10-31T01:01:54;90.13;;;50.97;;
52776;SDS011;38656;54.260;20.822;2022-10-31T01:04:20;66.03;;;48.30;;
52776;SDS011;38656;54.260;20.822;2022-10-31T01:06:46;73.68;;;51.53;;
52776;SDS011;38656;54.260;20.822;2022-10-31T01:09:12;59.97;;;46.83;;
52776;SDS011;38656;54.260;20.822;2022-10-31T01:11:38;30.65;;;21.90;;
52776;SDS011;38656;54.260;20.822;2022-10-31T01:14:04;38.95;;;24.33;;
52776;SDS011;38656;54.260;20.822;2022-10-31T01:16:30;33.20;;;25.90;;
52776;SDS011;38656;54.260;20.822;2022-10-31T01:18:56;34.85;;;27.02;;
52776;SDS011;38656;54.260;20.822;2022-10-31T01:21:23;33.38;;;24.27;;
52776;SDS011;38656;54.260;20.822;2022-10-31T01:23:50;25.23;;;20.30;;
52776;SDS011;38656;54.260;20.822;2022-10-31T01:26:20;24.75;;;18.25;;
52776;SDS011;38656;54.260;20.822;2022-10-31T01:28:47;23.30;;;17.23;;
52776;SDS011;38656;54.260;20.822;2022-10-31T01:31:14;28.17;;;17.58;;
52776;SDS011;38656;54.260;20.822;2022-10-31T01:33:41;23.20;;;15.63;;
52776;SDS011;38656;54.260;20.822;2022-10-31T01:36:14;20.65;;;15.52;;
52776;SDS011;38656;54.260;20.822;2022-10-31T01:38:40;25.38;;;16.00;;
52776;SDS011;38656;54.260;20.822;2022-10-31T01:41:06;21.23;;;15.98;;
52776;SDS011;38656;54.260;20.822;2022-10-31T01:43:46;18.50;;;14.57;;
52776;SDS011;38656;54.260;20.822;2022-10-31T01:46:13;18.75;;;14.45;;
52776;SDS011;38656;54.260;20.822;2022-10-31T01:48:39;16.13;;;11.02;;
52776;SDS011;38656;54.260;20.822;2022-10-31T01:51:06;21.88;;;15.07;;
52776;SDS011;38656;54.260;20.822;2022-10-31T01:53:33;18.55;;;13.15;;
52776;SDS011;38656;54.260;20.822;2022-10-31T01:56:00;19.15;;;12.27;;
52776;SDS011;38656;54.260;20.822;2022-10-31T01:58:28;21.88;;;12.90;;
52776;SDS011;38656;54.260;20.822;2022-10-31T02:00:57;23.70;;;14.05;;
52776;SDS011;38656;54.260;20.822;2022-10-31T02:03:23;22.38;;;14.77;;
52776;SDS011;38656;54.260;20.822;2022-10-31T02:05:51;22.33;;;15.57;;
52776;SDS011;38656;54.260;20.822;2022-10-31T02:08:23;22.50;;;16.38;;
52776;SDS011;38656;54.260;20.822;2022-10-31T02:10:51;25.40;;;15.45;;
52776;SDS011;38656;54.260;20.822;2022-10-31T02:13:17;24.20;;;15.60;;
52776;SDS011;38656;54.260;20.822;2022-10-31T02:15:45;26.63;;;16.92;;
52776;SDS011;38656;54.260;20.822;2022-10-31T02:18:12;25.15;;;16.20;;
52776;SDS011;38656;54.260;20.822;2022-10-31T02:23:25;18.35;;;12.48;;
52776;SDS011;38656;54.260;20.822;2022-10-31T02:31:22;24.23;;;17.10;;
52776;SDS011;38656;54.260;20.822;2022-10-31T02:33:53;24.65;;;16.50;;
52776;SDS011;38656;54.260;20.822;2022-10-31T02:38:52;23.02;;;13.40;;
52776;SDS011;38656;54.260;20.822;2022-10-31T02:41:27;13.57;;;10.95;;
52776;SDS011;38656;54.260;20.822;2022-10-31T02:49:14;22.77;;;11.70;;
52776;SDS011;38656;54.260;20.822;2022-10-31T02:51:43;14.82;;;10.27;;
52776;SDS011;38656;54.260;20.822;2022-10-31T02:54:18;16.67;;;10.20;;
52776;SDS011;38656;54.260;20.822;2022-10-31T02:56:45;15.02;;;8.32;;
52776;SDS011;38656;54.260;20.822;2022-10-31T02:59:11;19.55;;;8.90;;
52776;SDS011;38656;54.260;20.822;2022-10-31T03:06:57;13.68;;;7.93;;
52776;SDS011;38656;54.260;20.822;2022-10-31T03:09:27;15.43;;;8.15;;
52776;SDS011;38656;54.260;20.822;2022-10-31T03:12:12;19.70;;;8.70;;
52776;SDS011;38656;54.260;20.822;2022-10-31T03:14:42;22.60;;;8.80;;
52776;SDS011;38656;54.260;20.822;2022-10-31T03:17:12;11.32;;;7.63;;
52776;SDS011;38656;54.260;20.822;2022-10-31T03:19:40;15.43;;;7.75;;
52776;SDS011;38656;54.260;20.822;2022-10-31T03:22:10;12.63;;;7.53;;
52776;SDS011;38656;54.260;20.822;2022-10-31T03:24:41;13.43;;;7.47;;
52776;SDS011;38656;54.260;20.822;2022-10-31T03:27:08;13.95;;;8.05;;
52776;SDS011;38656;54.260;20.822;2022-10-31T03:29:36;13.48;;;7.38;;
52776;SDS011;38656;54.260;20.822;2022-10-31T03:32:03;11.60;;;7.60;;
52776;SDS011;38656;54.260;20.822;2022-10-31T03:34:31;16.58;;;10.98;;
52776;SDS011;38656;54.260;20.822;2022-10-31T03:36:59;27.33;;;23.85;;
52776;SDS011;38656;54.260;20.822;2022-10-31T03:39:27;23.13;;;16.20;;
52776;SDS011;38656;54.260;20.822;2022-10-31T03:42:00;44.17;;;31.60;;
52776;SDS011;38656;54.260;20.822;2022-10-31T03:46:53;19.88;;;9.60;;
52776;SDS011;38656;54.260;20.822;2022-10-31T03:49:20;15.70;;;8.02;;
52776;SDS011;38656;54.260;20.822;2022-10-31T03:51:57;27.33;;;17.80;;
52776;SDS011;38656;54.260;20.822;2022-10-31T03:56:57;13.20;;;7.80;;
52776;SDS011;38656;54.260;20.822;2022-10-31T03:59:28;18.73;;;9.93;;
52776;SDS011;38656;54.260;20.822;2022-10-31T04:01:57;16.08;;;10.20;;
52776;SDS011;38656;54.260;20.822;2022-10-31T04:04:24;16.50;;;10.75;;
52776;SDS011;38656;54.260;20.822;2022-10-31T04:06:54;19.48;;;11.18;;
52776;SDS011;38656;54.260;20.822;2022-10-31T04:09:20;23.50;;;16.58;;
52776;SDS011;38656;54.260;20.822;2022-10-31T04:11:48;35.47;;;19.63;;
52776;SDS011;38656;54.260;20.822;2022-10-31T04:14:16;19.58;;;11.48;;
52776;SDS011;38656;54.260;20.822;2022-10-31T04:16:42;18.25;;;12.10;;
52776;SDS011;38656;54.260;20.822;2022-10-31T04:19:09;16.40;;;11.98;;
52776;SDS011;38656;54.260;20.822;2022-10-31T04:21:36;22.05;;;13.48;;
52776;SDS011;38656;54.260;20.822;2022-10-31T04:24:02;24.17;;;12.23;;
52776;SDS011;38656;54.260;20.822;2022-10-31T04:26:28;25.65;;;16.48;;
52776;SDS011;38656;54.260;20.822;2022-10-31T04:28:54;23.05;;;12.60;;
52776;SDS011;38656;54.260;20.822;2022-10-31T04:31:20;19.15;;;10.25;;
52776;SDS011;38656;54.260;20.822;2022-10-31T04:33:46;25.05;;;17.90;;
52776;SDS011;38656;54.260;20.822;2022-10-31T04:36:12;26.38;;;18.42;;
52776;SDS011;38656;54.260;20.822;2022-10-31T04:38:38;22.35;;;14.35;;
52776;SDS011;38656;54.260;20.822;2022-10-31T04:41:04;18.58;;;11.95;;
52776;SDS011;38656;54.260;20.822;2022-10-31T04:43:30;18.92;;;9.05;;
52776;SDS011;38656;54.260;20.822;2022-10-31T04:45:56;22.65;;;9.10;;
52776;SDS011;38656;54.260;20.822;2022-10-31T04:48:22;17.60;;;8.30;;
52776;SDS011;38656;54.260;20.822;2022-10-31T04:50:48;23.75;;;8.48;;
52776;SDS011;38656;54.260;20.822;2022-10-31T04:53:14;11.45;;;7.10;;
52776;SDS011;38656;54.260;20.822;2022-10-31T04:55:40;22.50;;;8.45;;
52776;SDS011;38656;54.260;20.822;2022-10-31T04:58:06;14.27;;;7.70;;
52776;SDS011;38656;54.260;20.822;2022-10-31T05:00:32;14.57;;;8.45;;
52776;SDS011;38656;54.260;20.822;2022-10-31T05:02:58;16.27;;;8.60;;
52776;SDS011;38656;54.260;20.822;2022-10-31T05:05:25;18.23;;;10.25;;
52776;SDS011;38656;54.260;20.822;2022-10-31T05:07:52;22.45;;;11.18;;
52776;SDS011;38656;54.260;20.822;2022-10-31T05:10:20;15.80;;;8.30;;
52776;SDS011;38656;54.260;20.822;2022-10-31T05:12:49;27.67;;;18.48;;
52776;SDS011;38656;54.260;20.822;2022-10-31T05:15:16;18.13;;;11.85;;
52776;SDS011;38656;54.260;20.822;2022-10-31T05:17:42;14.90;;;11.20;;
52776;SDS011;38656;54.260;20.822;2022-10-31T05:20:09;15.45;;;9.70;;
52776;SDS011;38656;54.260;20.822;2022-10-31T05:22:35;18.33;;;11.88;;
52776;SDS011;38656;54.260;20.822;2022-10-31T05:25:01;19.13;;;10.32;;
52776;SDS011;38656;54.260;20.822;2022-10-31T05:27:27;13.40;;;10.07;;
52776;SDS011;38656;54.260;20.822;2022-10-31T05:29:53;16.65;;;9.18;;
52776;SDS011;38656;54.260;20.822;2022-10-31T05:32:19;15.60;;;9.35;;
52776;SDS011;38656;54.260;20.822;2022-10-31T05:34:45;14.18;;;8.82;;
52776;SDS011;38656;54.260;20.822;2022-10-31T05:37:12;18.48;;;9.18;;
52776;SDS011;38656;54.260;20.822;2022-10-31T05:39:38;18.58;;;9.80;;
52776;SDS011;38656;54.260;20.822;2022-10-31T05:42:04;15.70;;;9.52;;
52776;SDS011;38656;54.260;20.822;2022-10-31T05:44:30;17.98;;;8.45;;
52776;SDS011;38656;54.260;20.822;2022-10-31T05:46:56;17.17;;;10.20;;
52776;SDS011;38656;54.260;20.822;2022-10-31T05:49:22;13.00;;;8.88;;
52776;SDS011;38656;54.260;20.822;2022-10-31T05:51:48;21.38;;;13.65;;
52776;SDS011;38656;54.260;20.822;2022-10-31T05:54:14;50.03;;;38.20;;
52776;SDS011;38656;54.260;20.822;2022-10-31T05:56:40;91.30;;;67.68;;
52776;SDS011;38656;54.260;20.822;2022-10-31T05:59:06;37.60;;;26.83;;
52776;SDS011;38656;54.260;20.822;2022-10-31T06:01:32;38.67;;;30.33;;
52776;SDS011;38656;54.260;20.822;2022-10-31T06:03:58;22.13;;;14.98;;
52776;SDS011;38656;54.260;20.822;2022-10-31T06:06:24;22.75;;;15.10;;
52776;SDS011;38656;54.260;20.822;2022-10-31T06:08:50;23.00;;;18.63;;
52776;SDS011;38656;54.260;20.822;2022-10-31T06:11:16;28.02;;;21.55;;
52776;SDS011;38656;54.260;20.822;2022-10-31T06:13:43;23.67;;;11.25;;
52776;SDS011;38656;54.260;20.822;2022-10-31T06:16:09;20.80;;;12.73;;
52776;SDS011;38656;54.260;20.822;2022-10-31T06:18:35;18.98;;;12.55;;
52776;SDS011;38656;54.260;20.822;2022-10-31T06:21:01;21.80;;;13.68;;
52776;SDS011;38656;54.260;20.822;2022-10-31T06:23:27;18.95;;;13.48;;
52776;SDS011;38656;54.260;20.822;2022-10-31T06:25:53;21.85;;;12.25;;
52776;SDS011;38656;54.260;20.822;2022-10-31T06:28:20;30.27;;;14.90;;
52776;SDS011;38656;54.260;20.822;2022-10-31T06:30:46;19.17;;;13.90;;
52776;SDS011;38656;54.260;20.822;2022-10-31T06:33:12;30.90;;;18.45;;
52776;SDS011;38656;54.260;20.822;2022-10-31T06:35:38;20.35;;;15.75;;
52776;SDS011;38656;54.260;20.822;2022-10-31T06:38:10;24.65;;;16.52;;
52776;SDS011;38656;54.260;20.822;2022-10-31T06:40:36;27.77;;;20.90;;
52776;SDS011;38656;54.260;20.822;2022-10-31T06:43:02;22.60;;;17.70;;
52776;SDS011;38656;54.260;20.822;2022-10-31T06:45:28;28.58;;;19.92;;
52776;SDS011;38656;54.260;20.822;2022-10-31T06:47:54;39.08;;;32.75;;
52776;SDS011;38656;54.260;20.822;2022-10-31T06:50:21;27.73;;;21.23;;
52776;SDS011;38656;54.260;20.822;2022-10-31T06:52:54;40.10;;;34.97;;
52776;SDS011;38656;54.260;20.822;2022-10-31T06:55:20;78.50;;;51.13;;
52776;SDS011;38656;54.260;20.822;2022-10-31T06:57:51;31.83;;;24.02;;
52776;SDS011;38656;54.260;20.822;2022-10-31T07:00:17;32.50;;;23.83;;
52776;SDS011;38656;54.260;20.822;2022-10-31T07:02:43;33.13;;;19.98;;
52776;SDS011;38656;54.260;20.822;2022-10-31T07:05:09;26.60;;;19.77;;
52776;SDS011;38656;54.260;20.822;2022-10-31T07:07:35;24.00;;;19.27;;
52776;SDS011;38656;54.260;20.822;2022-10-31T07:10:01;23.30;;;16.67;;
52776;SDS011;38656;54.260;20.822;2022-10-31T07:12:27;25.88;;;17.83;;
52776;SDS011;38656;54.260;20.822;2022-10-31T07:14:53;36.20;;;18.35;;
52776;SDS011;38656;54.260;20.822;2022-10-31T07:17:22;26.17;;;17.08;;
52776;SDS011;38656;54.260;20.822;2022-10-31T07:19:49;27.40;;;18.90;;
52776;SDS011;38656;54.260;20.822;2022-10-31T07:22:15;24.73;;;17.77;;
52776;SDS011;38656;54.260;20.822;2022-10-31T07:24:41;33.60;;;19.30;;
52776;SDS011;38656;54.260;20.822;2022-10-31T07:27:07;25.58;;;18.50;;
52776;SDS011;38656;54.260;20.822;2022-10-31T07:29:33;26.90;;;18.15;;
52776;SDS011;38656;54.260;20.822;2022-10-31T07:31:59;26.10;;;17.92;;
52776;SDS011;38656;54.260;20.822;2022-10-31T07:34:25;23.75;;;18.35;;
52776;SDS011;38656;54.260;20.822;2022-10-31T07:36:51;31.23;;;19.77;;
52776;SDS011;38656;54.260;20.822;2022-10-31T07:39:17;30.73;;;21.02;;
52776;SDS011;38656;54.260;20.822;2022-10-31T07:41:43;36.47;;;22.42;;
52776;SDS011;38656;54.260;20.822;2022-10-31T07:44:09;37.95;;;21.65;;
52776;SDS011;38656;54.260;20.822;2022-10-31T07:46:35;33.10;;;23.63;;
52776;SDS011;38656;54.260;20.822;2022-10-31T07:49:02;38.97;;;28.60;;
52776;SDS011;38656;54.260;20.822;2022-10-31T07:51:28;48.88;;;39.58;;
52776;SDS011;38656;54.260;20.822;2022-10-31T07:53:54;39.13;;;20.98;;
52776;SDS011;38656;54.260;20.822;2022-10-31T07:56:20;30.02;;;19.27;;
52776;SDS011;38656;54.260;20.822;2022-10-31T07:58:47;39.85;;;24.75;;
52776;SDS011;38656;54.260;20.822;2022-10-31T08:01:13;31.08;;;19.92;;
52776;SDS011;38656;54.260;20.822;2022-10-31T08:03:39;24.98;;;15.23;;
52776;SDS011;38656;54.260;20.822;2022-10-31T08:06:05;24.00;;;15.93;;
52776;SDS011;38656;54.260;20.822;2022-10-31T08:08:31;24.25;;;15.60;;
52776;SDS011;38656;54.260;20.822;2022-10-31T08:10:57;16.20;;;13.38;;
52776;SDS011;38656;54.260;20.822;2022-10-31T08:13:23;19.92;;;14.25;;
52776;SDS011;38656;54.260;20.822;2022-10-31T08:15:55;20.02;;;14.05;;
52776;SDS011;38656;54.260;20.822;2022-10-31T08:18:28;19.98;;;12.57;;
52776;SDS011;38656;54.260;20.822;2022-10-31T08:20:54;18.20;;;13.18;;
52776;SDS011;38656;54.260;20.822;2022-10-31T08:23:20;18.60;;;13.02;;
52776;SDS011;38656;54.260;20.822;2022-10-31T08:25:46;15.68;;;13.27;;
52776;SDS011;38656;54.260;20.822;2022-10-31T08:28:13;16.50;;;12.93;;
52776;SDS011;38656;54.260;20.822;2022-10-31T08:30:39;15.07;;;11.38;;
52776;SDS011;38656;54.260;20.822;2022-10-31T08:33:10;15.00;;;11.45;;
52776;SDS011;38656;54.260;20.822;2022-10-31T08:35:36;16.42;;;14.02;;
52776;SDS011;38656;54.260;20.822;2022-10-31T08:38:03;16.85;;;10.27;;
52776;SDS011;38656;54.260;20.822;2022-10-31T08:40:30;15.32;;;11.02;;
52776;SDS011;38656;54.260;20.822;2022-10-31T08:42:59;12.68;;;10.20;;
52776;SDS011;38656;54.260;20.822;2022-10-31T08:45:26;16.23;;;9.68;;
52776;SDS011;38656;54.260;20.822;2022-10-31T08:47:56;14.27;;;9.13;;
52776;SDS011;38656;54.260;20.822;2022-10-31T08:50:22;12.35;;;9.23;;
52776;SDS011;38656;54.260;20.822;2022-10-31T08:52:48;13.23;;;9.02;;
52776;SDS011;38656;54.260;20.822;2022-10-31T08:55:14;12.65;;;9.88;;
52776;SDS011;38656;54.260;20.822;2022-10-31T08:57:40;13.77;;;9.70;;
52776;SDS011;38656;54.260;20.822;2022-10-31T09:00:06;17.15;;;10.40;;
52776;SDS011;38656;54.260;20.822;2022-10-31T09:02:33;12.88;;;10.07;;
52776;SDS011;38656;54.260;20.822;2022-10-31T09:04:59;18.52;;;11.98;;
52776;SDS011;38656;54.260;20.822;2022-10-31T09:07:25;15.27;;;10.45;;
52776;SDS011;38656;54.260;20.822;2022-10-31T09:09:51;15.13;;;9.27;;
52776;SDS011;38656;54.260;20.822;2022-10-31T09:12:17;12.32;;;9.43;;
52776;SDS011;38656;54.260;20.822;2022-10-31T09:14:43;11.00;;;9.43;;
52776;SDS011;38656;54.260;20.822;2022-10-31T09:17:09;16.15;;;11.55;;
52776;SDS011;38656;54.260;20.822;2022-10-31T09:19:35;12.25;;;9.50;;
52776;SDS011;38656;54.260;20.822;2022-10-31T09:22:01;12.35;;;10.00;;
52776;SDS011;38656;54.260;20.822;2022-10-31T09:24:27;17.85;;;9.82;;
52776;SDS011;38656;54.260;20.822;2022-10-31T09:26:53;14.20;;;10.88;;
52776;SDS011;38656;54.260;20.822;2022-10-31T09:29:19;14.27;;;10.15;;
52776;SDS011;38656;54.260;20.822;2022-10-31T09:31:45;13.32;;;9.85;;
52776;SDS011;38656;54.260;20.822;2022-10-31T09:34:11;15.57;;;9.43;;
52776;SDS011;38656;54.260;20.822;2022-10-31T09:36:37;14.02;;;9.20;;
52776;SDS011;38656;54.260;20.822;2022-10-31T09:39:04;11.27;;;8.30;;
52776;SDS011;38656;54.260;20.822;2022-10-31T09:51:40;9.10;;;7.35;;
52776;SDS011;38656;54.260;20.822;2022-10-31T09:56:33;10.35;;;7.97;;
52776;SDS011;38656;54.260;20.822;2022-10-31T09:59:01;10.95;;;7.22;;
52776;SDS011;38656;54.260;20.822;2022-10-31T10:04:14;10.88;;;9.88;;
52776;SDS011;38656;54.260;20.822;2022-10-31T10:06:44;9.88;;;7.03;;
52776;SDS011;38656;54.260;20.822;2022-10-31T10:09:10;11.20;;;8.27;;
52776;SDS011;38656;54.260;20.822;2022-10-31T10:16:56;9.32;;;7.13;;
52776;SDS011;38656;54.260;20.822;2022-10-31T10:30:04;7.38;;;5.70;;
52776;SDS011;38656;54.260;20.822;2022-10-31T10:32:41;8.23;;;6.37;;
52776;SDS011;38656;54.260;20.822;2022-10-31T10:37:41;9.88;;;6.45;;
52776;SDS011;38656;54.260;20.822;2022-10-31T10:42:59;8.23;;;5.65;;
52776;SDS011;38656;54.260;20.822;2022-10-31T10:45:47;6.15;;;5.07;;
52776;SDS011;38656;54.260;20.822;2022-10-31T10:48:54;5.75;;;4.90;;
52776;SDS011;38656;54.260;20.822;2022-10-31T10:51:23;5.95;;;4.97;;
52776;SDS011;38656;54.260;20.822;2022-10-31T10:59:31;6.38;;;5.22;;
52776;SDS011;38656;54.260;20.822;2022-10-31T11:01:57;7.72;;;4.90;;
52776;SDS011;38656;54.260;20.822;2022-10-31T11:04:34;8.68;;;4.68;;
52776;SDS011;38656;54.260;20.822;2022-10-31T11:07:04;6.63;;;4.20;;
52776;SDS011;38656;54.260;20.822;2022-10-31T11:09:31;6.38;;;4.55;;
52776;SDS011;38656;54.260;20.822;2022-10-31T11:11:58;5.65;;;4.72;;
52776;SDS011;38656;54.260;20.822;2022-10-31T11:14:24;6.18;;;4.85;;
52776;SDS011;38656;54.260;20.822;2022-10-31T11:16:54;5.47;;;4.97;;
52776;SDS011;38656;54.260;20.822;2022-10-31T11:19:21;7.20;;;5.45;;
52776;SDS011;38656;54.260;20.822;2022-10-31T11:21:48;5.57;;;4.82;;
52776;SDS011;38656;54.260;20.822;2022-10-31T11:24:16;4.65;;;4.00;;
52776;SDS011;38656;54.260;20.822;2022-10-31T11:26:43;5.35;;;4.82;;
52776;SDS011;38656;54.260;20.822;2022-10-31T11:29:14;6.25;;;5.10;;
52776;SDS011;38656;54.260;20.822;2022-10-31T11:31:40;17.10;;;6.07;;
52776;SDS011;38656;54.260;20.822;2022-10-31T11:36:45;6.78;;;5.10;;
52776;SDS011;38656;54.260;20.822;2022-10-31T11:39:18;6.20;;;4.80;;
52776;SDS011;38656;54.260;20.822;2022-10-31T11:41:45;6.18;;;4.35;;
52776;SDS011;38656;54.260;20.822;2022-10-31T11:46:51;17.95;;;6.47;;
52776;SDS011;38656;54.260;20.822;2022-10-31T11:49:36;6.15;;;4.25;;
52776;SDS011;38656;54.260;20.822;2022-10-31T11:52:07;6.43;;;4.78;;
52776;SDS011;38656;54.260;20.822;2022-10-31T11:54:54;5.10;;;4.15;;
52776;SDS011;38656;54.260;20.822;2022-10-31T11:57:31;8.57;;;4.50;;
52776;SDS011;38656;54.260;20.822;2022-10-31T11:59:58;5.20;;;4.70;;
52776;SDS011;38656;54.260;20.822;2022-10-31T12:02:25;6.55;;;4.72;;
52776;SDS011;38656;54.260;20.822;2022-10-31T12:07:23;6.57;;;5.47;;
52776;SDS011;38656;54.260;20.822;2022-10-31T12:09:50;5.03;;;4.63;;
52776;SDS011;38656;54.260;20.822;2022-10-31T12:18:24;5.38;;;4.05;;
52776;SDS011;38656;54.260;20.822;2022-10-31T12:23:49;8.63;;;6.10;;
52776;SDS011;38656;54.260;20.822;2022-10-31T12:25:46;5.70;;;4.07;;
52776;SDS011;38656;54.260;20.822;2022-10-31T12:33:51;13.65;;;12.35;;
52776;SDS011;38656;54.260;20.822;2022-10-31T12:39:19;8.57;;;4.78;;
52776;SDS011;38656;54.260;20.822;2022-10-31T12:41:44;5.97;;;4.28;;
52776;SDS011;38656;54.260;20.822;2022-10-31T12:44:29;5.38;;;4.88;;
52776;SDS011;38656;54.260;20.822;2022-10-31T12:59:38;9.13;;;8.10;;
52776;SDS011;38656;54.260;20.822;2022-10-31T13:02:23;5.55;;;4.65;;
52776;SDS011;38656;54.260;20.822;2022-10-31T13:05:02;6.97;;;5.20;;
52776;SDS011;38656;54.260;20.822;2022-10-31T13:10:02;10.98;;;6.00;;
52776;SDS011;38656;54.260;20.822;2022-10-31T13:12:29;7.68;;;6.22;;
52776;SDS011;38656;54.260;20.822;2022-10-31T13:14:58;7.28;;;5.22;;
52776;SDS011;38656;54.260;20.822;2022-10-31T13:17:30;7.22;;;4.97;;
52776;SDS011;38656;54.260;20.822;2022-10-31T13:20:03;5.22;;;4.72;;
52776;SDS011;38656;54.260;20.822;2022-10-31T13:22:32;8.60;;;6.60;;
52776;SDS011;38656;54.260;20.822;2022-10-31T13:25:09;9.48;;;6.75;;
52776;SDS011;38656;54.260;20.822;2022-10-31T13:27:58;9.77;;;6.10;;
52776;SDS011;38656;54.260;20.822;2022-10-31T13:30:23;7.35;;;6.65;;
52776;SDS011;38656;54.260;20.822;2022-10-31T13:32:59;7.63;;;6.55;;
52776;SDS011;38656;54.260;20.822;2022-10-31T13:45:21;15.57;;;11.98;;
52776;SDS011;38656;54.260;20.822;2022-10-31T13:50:32;9.75;;;7.05;;
52776;SDS011;38656;54.260;20.822;2022-10-31T13:53:12;9.25;;;7.68;;
52776;SDS011;38656;54.260;20.822;2022-10-31T13:58:05;19.35;;;15.15;;
52776;SDS011;38656;54.260;20.822;2022-10-31T14:00:44;22.08;;;20.10;;
52776;SDS011;38656;54.260;20.822;2022-10-31T14:03:18;19.83;;;18.13;;
52776;SDS011;38656;54.260;20.822;2022-10-31T14:08:18;28.92;;;26.52;;
52776;SDS011;38656;54.260;20.822;2022-10-31T14:10:46;42.63;;;39.00;;
52776;SDS011;38656;54.260;20.822;2022-10-31T14:13:24;16.60;;;14.93;;
52776;SDS011;38656;54.260;20.822;2022-10-31T14:15:53;20.00;;;18.10;;
52776;SDS011;38656;54.260;20.822;2022-10-31T14:18:30;13.68;;;10.90;;
52776;SDS011;38656;54.260;20.822;2022-10-31T14:20:57;13.85;;;11.30;;
52776;SDS011;38656;54.260;20.822;2022-10-31T14:26:29;13.60;;;11.68;;
52776;SDS011;38656;54.260;20.822;2022-10-31T14:28:51;11.80;;;10.50;;
52776;SDS011;38656;54.260;20.822;2022-10-31T14:33:53;10.48;;;9.57;;
52776;SDS011;38656;54.260;20.822;2022-10-31T14:36:25;10.88;;;9.88;;
52776;SDS011;38656;54.260;20.822;2022-10-31T14:46:40;73.00;;;65.30;;
52776;SDS011;38656;54.260;20.822;2022-10-31T14:51:42;36.67;;;33.50;;
52776;SDS011;38656;54.260;20.822;2022-10-31T14:54:17;31.13;;;28.33;;
52776;SDS011;38656;54.260;20.822;2022-10-31T14:56:55;27.33;;;24.92;;
52776;SDS011;38656;54.260;20.822;2022-10-31T14:59:24;18.98;;;16.98;;
52776;SDS011;38656;54.260;20.822;2022-10-31T15:01:56;16.83;;;14.82;;
52776;SDS011;38656;54.260;20.822;2022-10-31T15:04:30;18.88;;;17.27;;
52776;SDS011;38656;54.260;20.822;2022-10-31T15:07:02;32.13;;;29.02;;
52776;SDS011;38656;54.260;20.822;2022-10-31T15:09:31;66.55;;;59.25;;
52776;SDS011;38656;54.260;20.822;2022-10-31T15:11:58;40.30;;;36.70;;
52776;SDS011;38656;54.260;20.822;2022-10-31T15:14:30;58.28;;;52.65;;
52776;SDS011;38656;54.260;20.822;2022-10-31T15:16:57;42.58;;;38.35;;
52776;SDS011;38656;54.260;20.822;2022-10-31T15:19:24;50.83;;;45.72;;
52776;SDS011;38656;54.260;20.822;2022-10-31T15:21:51;27.00;;;24.33;;
52776;SDS011;38656;54.260;20.822;2022-10-31T15:24:18;41.40;;;37.40;;
52776;SDS011;38656;54.260;20.822;2022-10-31T15:26:45;43.22;;;38.58;;
52776;SDS011;38656;54.260;20.822;2022-10-31T15:29:13;54.28;;;39.05;;
52776;SDS011;38656;54.260;20.822;2022-10-31T15:31:48;63.50;;;44.53;;
52776;SDS011;38656;54.260;20.822;2022-10-31T15:34:16;99.90;;;70.70;;
52776;SDS011;38656;54.260;20.822;2022-10-31T15:36:47;68.03;;;59.97;;
52776;SDS011;38656;54.260;20.822;2022-10-31T15:39:14;64.82;;;44.17;;
52776;SDS011;38656;54.260;20.822;2022-10-31T15:44:16;39.90;;;35.45;;
52776;SDS011;38656;54.260;20.822;2022-10-31T15:46:51;37.95;;;30.58;;
52776;SDS011;38656;54.260;20.822;2022-10-31T15:54:28;30.83;;;27.65;;
52776;SDS011;38656;54.260;20.822;2022-10-31T15:56:54;34.40;;;29.52;;
52776;SDS011;38656;54.260;20.822;2022-10-31T15:59:24;30.00;;;27.17;;
52776;SDS011;38656;54.260;20.822;2022-10-31T16:02:00;40.05;;;31.88;;
52776;SDS011;38656;54.260;20.822;2022-10-31T16:04:27;30.55;;;27.60;;
52776;SDS011;38656;54.260;20.822;2022-10-31T16:06:58;23.33;;;17.10;;
52776;SDS011;38656;54.260;20.822;2022-10-31T16:09:25;22.10;;;19.35;;
52776;SDS011;38656;54.260;20.822;2022-10-31T16:11:51;20.92;;;19.08;;
52776;SDS011;38656;54.260;20.822;2022-10-31T16:14:18;23.70;;;20.83;;
52776;SDS011;38656;54.260;20.822;2022-10-31T16:16:47;29.00;;;26.02;;
52776;SDS011;38656;54.260;20.822;2022-10-31T16:19:25;52.50;;;45.15;;
52776;SDS011;38656;54.260;20.822;2022-10-31T16:22:02;37.72;;;32.85;;
52776;SDS011;38656;54.260;20.822;2022-10-31T16:24:31;28.20;;;25.52;;
52776;SDS011;38656;54.260;20.822;2022-10-31T16:27:05;21.13;;;19.13;;
52776;SDS011;38656;54.260;20.822;2022-10-31T16:31:58;22.42;;;19.92;;
52776;SDS011;38656;54.260;20.822;2022-10-31T16:34:24;27.88;;;25.15;;
52776;SDS011;38656;54.260;20.822;2022-10-31T16:36:50;22.85;;;20.55;;
52776;SDS011;38656;54.260;20.822;2022-10-31T16:39:16;22.15;;;19.88;;
52776;SDS011;38656;54.260;20.822;2022-10-31T16:41:46;22.10;;;20.10;;
52776;SDS011;38656;54.260;20.822;2022-10-31T16:44:21;26.08;;;23.58;;
52776;SDS011;38656;54.260;20.822;2022-10-31T16:46:48;26.98;;;24.33;;
52776;SDS011;38656;54.260;20.822;2022-10-31T16:49:23;29.23;;;22.65;;
52776;SDS011;38656;54.260;20.822;2022-10-31T16:51:49;40.05;;;35.10;;
52776;SDS011;38656;54.260;20.822;2022-10-31T16:54:15;31.90;;;28.77;;